Time;durP1;ratioP1;P1;durP2;ratioP2;P2;SDS_P1;SDS_P2;PMS_P1;PMS_P2;Temp;Humidity;BMP_temperature;BMP_pressure;BME280_temperature;BME280_humidity;BME280_pressure;Samples;Min_cycle;Max_cycle;Signal;HPM_P1;HPM_P2
2023/05/28 00:03:08;;;;;;;5.72;2.55;;;20.00;66.70;;;;;;10168480;28;20122;-60
2023/05/28 00:08:00;;;;;;;8.55;2.97;;;19.80;66.90;;;;;;10177296;28;20044;-63
2023/05/28 00:12:51;;;;;;;3.97;1.98;;;19.80;67.10;;;;;;10175379;28;20040;-65
2023/05/28 00:17:41;;;;;;;6.38;1.98;;;19.70;67.20;;;;;;10184831;28;20032;-69
2023/05/28 00:22:32;;;;;;;7.82;2.75;;;19.60;67.40;;;;;;10185129;28;20017;-67
2023/05/28 00:27:22;;;;;;;4.88;2.50;;;19.40;67.60;;;;;;10184690;28;20409;-63
2023/05/28 00:32:13;;;;;;;5.43;2.47;;;19.50;67.80;;;;;;10182770;28;20052;-61
2023/05/28 00:37:04;;;;;;;5.47;2.38;;;19.20;68.20;;;;;;10176363;28;20029;-61
2023/05/28 00:42:10;;;;;;;6.60;3.08;;;19.10;68.40;;;;;;10165989;28;20024;-61
2023/05/28 00:47:02;;;;;;;5.53;2.03;;;19.10;68.60;;;;;;10183545;28;20413;-60
2023/05/28 00:51:55;;;;;;;4.88;2.17;;;19.00;68.70;;;;;;10182872;28;20046;-61
2023/05/28 00:56:46;;;;;;;5.28;2.65;;;19.00;68.90;;;;;;10151402;28;20020;-61
2023/05/28 01:01:39;;;;;;;4.88;2.17;;;18.90;68.90;;;;;;10169936;28;20103;-60
2023/05/28 01:06:30;;;;;;;4.97;2.58;;;18.80;69.00;;;;;;10182292;28;20035;-60
2023/05/28 01:11:23;;;;;;;3.33;2.40;;;18.80;69.30;;;;;;10181997;28;20059;-61
2023/05/28 01:16:14;;;;;;;4.47;2.70;;;18.70;69.30;;;;;;10182485;28;20028;-61
2023/05/28 01:21:06;;;;;;;4.75;2.53;;;18.60;69.80;;;;;;10182305;28;20039;-62
2023/05/28 01:25:59;;;;;;;9.43;3.92;;;18.60;69.70;;;;;;10182003;28;20077;-64
2023/05/28 01:30:49;;;;;;;4.70;1.98;;;18.70;69.50;;;;;;10175229;28;20020;-64
2023/05/28 01:35:41;;;;;;;6.03;2.70;;;18.60;69.80;;;;;;10181387;28;20590;-63
2023/05/28 01:40:34;;;;;;;5.85;2.55;;;18.50;69.80;;;;;;10155610;28;20024;-59
2023/05/28 01:45:25;;;;;;;4.05;2.22;;;18.50;69.90;;;;;;10178171;28;20277;-65
2023/05/28 01:50:16;;;;;;;4.30;2.40;;;18.50;69.90;;;;;;10162952;28;20016;-61
2023/05/28 01:55:08;;;;;;;4.32;2.50;;;18.40;70.00;;;;;;10168011;28;20107;-61
2023/05/28 01:59:59;;;;;;;5.63;2.38;;;18.20;70.30;;;;;;10170266;28;20477;-71
2023/05/28 02:04:50;;;;;;;4.22;2.28;;;18.20;70.50;;;;;;10180583;28;20058;-65
2023/05/28 02:09:40;;;;;;;5.45;2.10;;;18.10;70.40;;;;;;10168396;28;20008;-61
2023/05/28 02:14:32;;;;;;;6.50;2.13;;;18.00;70.80;;;;;;10180156;28;20454;-62
2023/05/28 02:19:24;;;;;;;4.78;2.47;;;17.90;70.70;;;;;;10179537;28;20052;-62
2023/05/28 02:24:15;;;;;;;4.03;2.58;;;17.90;70.90;;;;;;10179798;28;20504;-61
2023/05/28 02:29:06;;;;;;;6.75;2.28;;;17.80;70.90;;;;;;10178106;28;20030;-73
2023/05/28 02:33:56;;;;;;;4.32;2.65;;;17.80;70.90;;;;;;10168776;28;20530;-64
2023/05/28 02:38:47;;;;;;;4.45;2.40;;;17.80;70.90;;;;;;10180049;28;20024;-69
2023/05/28 02:43:38;;;;;;;6.35;2.50;;;17.70;70.90;;;;;;10179961;28;20293;-61
2023/05/28 02:48:28;;;;;;;5.53;2.25;;;17.70;71.00;;;;;;10177610;28;20501;-68
2023/05/28 02:53:23;;;;;;;5.30;2.30;;;17.50;71.30;;;;;;10175635;28;20115;-63
2023/05/28 02:58:14;;;;;;;4.67;2.57;;;17.40;71.70;;;;;;10166698;28;20390;-69
2023/05/28 03:03:04;;;;;;;4.20;2.00;;;17.40;71.50;;;;;;10159670;28;20036;-61
2023/05/28 03:07:55;;;;;;;6.35;2.60;;;17.30;71.90;;;;;;10150717;28;20037;-63
2023/05/28 03:12:46;;;;;;;3.63;1.88;;;17.30;72.10;;;;;;10173712;28;20025;-65
2023/05/28 03:17:36;;;;;;;7.55;2.90;;;17.20;72.10;;;;;;10175368;28;20031;-60
2023/05/28 03:22:27;;;;;;;5.47;2.95;;;17.10;72.40;;;;;;10177528;28;20028;-61
2023/05/28 03:27:18;;;;;;;4.32;2.15;;;17.10;72.80;;;;;;10171242;28;20051;-60
2023/05/28 03:32:08;;;;;;;5.40;2.42;;;17.10;72.60;;;;;;10178017;28;20040;-61
2023/05/28 03:36:59;;;;;;;6.82;3.42;;;17.00;73.00;;;;;;10178230;28;20113;-60
2023/05/28 03:41:50;;;;;;;6.95;2.92;;;17.00;73.10;;;;;;10178087;28;20500;-63
2023/05/28 03:46:40;;;;;;;6.05;2.83;;;16.90;73.50;;;;;;10160202;28;20436;-65
2023/05/28 03:51:31;;;;;;;3.38;2.08;;;16.90;73.60;;;;;;10179477;28;20401;-68
2023/05/28 03:56:23;;;;;;;3.47;2.33;;;16.90;73.60;;;;;;10164757;28;20083;-62
2023/05/28 04:01:13;;;;;;;3.92;2.20;;;16.90;73.90;;;;;;10166640;28;20024;-62
2023/05/28 04:06:04;;;;;;;5.80;2.72;;;16.80;74.30;;;;;;10185304;28;20028;-60
2023/05/28 04:10:55;;;;;;;6.53;2.53;;;16.80;74.50;;;;;;10184657;28;20031;-63
2023/05/28 04:15:46;;;;;;;4.15;2.40;;;16.70;75.00;;;;;;10184757;28;20028;-63
2023/05/28 04:20:36;;;;;;;8.52;2.67;;;16.60;75.20;;;;;;10183672;28;20239;-62
2023/05/28 04:25:28;;;;;;;4.78;2.17;;;16.60;75.40;;;;;;10171792;28;20047;-61
2023/05/28 04:30:19;;;;;;;4.80;2.78;;;16.70;75.40;;;;;;10166198;28;20035;-62
2023/05/28 04:35:10;;;;;;;5.22;2.85;;;16.80;75.20;;;;;;10183530;28;20059;-62
2023/05/28 04:40:01;;;;;;;9.57;2.65;;;16.70;76.30;;;;;;10183831;28;20023;-61
2023/05/28 04:44:53;;;;;;;4.60;2.55;;;16.70;76.00;;;;;;10180981;28;20037;-64
2023/05/28 04:49:44;;;;;;;7.07;3.05;;;16.70;75.90;;;;;;10181999;28;20028;-64
2023/05/28 04:54:35;;;;;;;6.20;2.80;;;16.60;76.60;;;;;;10183272;28;20394;-65
2023/05/28 04:59:26;;;;;;;3.33;2.75;;;16.60;76.60;;;;;;10170268;28;20021;-62
2023/05/28 05:04:17;;;;;;;4.07;2.05;;;16.70;76.50;;;;;;10171011;28;20043;-66
2023/05/28 05:09:08;;;;;;;5.80;2.78;;;16.70;76.50;;;;;;10158360;28;20024;-61
2023/05/28 05:13:58;;;;;;;7.15;3.00;;;16.70;76.80;;;;;;10168800;28;20032;-61
2023/05/28 05:18:49;;;;;;;6.20;3.20;;;16.50;77.70;;;;;;10173130;28;20393;-61
2023/05/28 05:23:40;;;;;;;6.25;2.88;;;16.50;77.80;;;;;;10168956;28;20032;-62
2023/05/28 05:28:31;;;;;;;5.55;2.60;;;16.70;77.50;;;;;;10181237;28;20061;-60
2023/05/28 05:33:21;;;;;;;5.35;2.92;;;16.70;77.70;;;;;;10181086;28;20116;-60
2023/05/28 05:38:12;;;;;;;5.72;2.42;;;16.80;77.40;;;;;;10181106;28;20039;-61
2023/05/28 05:43:03;;;;;;;6.78;2.70;;;16.70;78.00;;;;;;10180595;28;20074;-60
2023/05/28 05:47:53;;;;;;;4.90;2.90;;;16.70;78.40;;;;;;10180152;28;20121;-61
2023/05/28 05:52:44;;;;;;;8.65;2.45;;;16.90;78.00;;;;;;10181682;28;20024;-63
2023/05/28 05:57:36;;;;;;;6.57;2.90;;;16.80;78.60;;;;;;10167735;28;20028;-63
2023/05/28 06:02:26;;;;;;;4.18;2.28;;;16.90;78.40;;;;;;10177898;28;20482;-73
2023/05/28 06:07:17;;;;;;;5.32;2.40;;;17.00;78.30;;;;;;10180420;28;20032;-66
2023/05/28 06:12:08;;;;;;;7.20;3.17;;;16.90;79.00;;;;;;10168259;28;20024;-68
2023/05/28 06:16:58;;;;;;;7.80;3.47;;;16.90;79.20;;;;;;10155871;28;20025;-62
2023/05/28 06:21:50;;;;;;;7.78;4.15;;;17.10;78.90;;;;;;10154731;28;20036;-61
2023/05/28 06:26:41;;;;;;;5.07;3.00;;;17.30;78.70;;;;;;10169272;28;20048;-61
2023/05/28 06:31:32;;;;;;;6.47;3.42;;;17.40;78.50;;;;;;10166204;28;20052;-60
2023/05/28 06:36:23;;;;;;;8.27;3.58;;;17.50;78.50;;;;;;10179784;28;20069;-60
2023/05/28 06:41:14;;;;;;;5.43;3.35;;;17.60;78.60;;;;;;10179366;28;20059;-63
2023/05/28 06:46:05;;;;;;;6.45;2.80;;;17.60;78.80;;;;;;10175490;28;20032;-61
2023/05/28 06:50:57;;;;;;;7.28;2.38;;;17.80;78.70;;;;;;10179124;28;20535;-62
2023/05/28 06:55:47;;;;;;;5.05;3.22;;;17.70;78.80;;;;;;10166588;28;20099;-64
2023/05/28 07:00:38;;;;;;;7.32;3.00;;;17.80;78.90;;;;;;10179184;28;20115;-60
2023/05/28 07:05:28;;;;;;;6.40;3.95;;;17.90;78.90;;;;;;10179135;28;20074;-65
2023/05/28 07:10:19;;;;;;;5.07;2.70;;;17.80;79.10;;;;;;10178459;28;20099;-60
2023/05/28 07:15:10;;;;;;;4.63;2.92;;;17.90;78.90;;;;;;10178846;28;20039;-66
2023/05/28 07:20:00;;;;;;;5.72;2.63;;;18.00;79.10;;;;;;10179496;28;20195;-61
2023/05/28 07:24:51;;;;;;;11.32;3.13;;;18.30;78.80;;;;;;10179783;28;20032;-63
2023/05/28 07:29:42;;;;;;;8.45;2.75;;;18.30;78.80;;;;;;10178748;28;20044;-61
2023/05/28 07:34:32;;;;;;;7.28;3.17;;;18.40;78.70;;;;;;10178944;28;20172;-60
2023/05/28 07:39:23;;;;;;;8.15;3.92;;;18.50;78.80;;;;;;10185893;28;20024;-62
2023/05/28 07:44:15;;;;;;;8.73;2.67;;;18.70;78.60;;;;;;10187130;28;20185;-61
2023/05/28 07:49:06;;;;;;;3.95;2.15;;;18.80;78.70;;;;;;10167558;28;20057;-60
2023/05/28 07:53:56;;;;;;;5.35;3.45;;;18.80;78.90;;;;;;10178292;28;20045;-69
2023/05/28 07:58:47;;;;;;;8.52;3.33;;;18.90;78.80;;;;;;10157579;28;20012;-62
2023/05/28 08:03:38;;;;;;;11.20;3.78;;;19.10;78.50;;;;;;10171739;28;20032;-69
2023/05/28 08:08:28;;;;;;;7.13;3.50;;;19.20;78.20;;;;;;10185156;28;20028;-61
2023/05/28 08:13:19;;;;;;;4.45;2.67;;;19.20;78.40;;;;;;10185775;28;20016;-61
2023/05/28 08:18:10;;;;;;;7.47;3.55;;;19.50;78.10;;;;;;10184582;28;20548;-60
2023/05/28 08:23:00;;;;;;;7.85;3.20;;;19.70;77.60;;;;;;10165710;28;20517;-61
2023/05/28 08:27:51;;;;;;;6.65;2.80;;;19.80;77.80;;;;;;10174187;28;20123;-60
2023/05/28 08:32:42;;;;;;;6.78;2.65;;;20.10;77.40;;;;;;10183404;28;20562;-61
2023/05/28 08:37:32;;;;;;;3.88;2.60;;;20.10;77.20;;;;;;10183260;28;20054;-65
2023/05/28 08:42:24;;;;;;;6.30;3.13;;;20.30;77.30;;;;;;10165044;28;20031;-62
2023/05/28 08:47:15;;;;;;;5.90;3.38;;;20.40;77.20;;;;;;10164165;28;20047;-62
2023/05/28 08:52:08;;;;;;;9.38;2.80;;;20.40;77.30;;;;;;10182628;28;20363;-61
2023/05/28 08:57:00;;;;;;;7.75;3.83;;;20.40;77.00;;;;;;10169437;28;20554;-61
2023/05/28 09:01:52;;;;;;;6.28;3.40;;;20.70;76.90;;;;;;10175911;28;20394;-61
2023/05/28 09:06:42;;;;;;;6.35;3.13;;;20.80;76.60;;;;;;10160365;28;20036;-66
2023/05/28 09:11:33;;;;;;;7.90;2.97;;;20.70;76.70;;;;;;10164091;28;20024;-63
2023/05/28 09:16:43;;;;;;;7.55;2.70;;;20.80;76.70;;;;;;10140085;27;20395;-62
2023/05/28 09:21:33;;;;;;;;;;;21.00;76.40;;;;;;10134174;28;20029;-64
2023/05/28 09:26:29;;;;;;;6.70;2.47;;;21.00;76.20;;;;;;10134114;28;20298;-69
2023/05/28 09:31:27;;;;;;;8.60;4.03;;;21.00;76.00;;;;;;10126402;28;20025;-71
2023/05/28 09:36:17;;;;;;;7.95;2.80;;;21.10;75.90;;;;;;10133578;28;20037;-62
2023/05/28 09:41:33;;;;;;;5.30;2.70;;;21.20;76.00;;;;;;10132884;28;20055;-74
2023/05/28 09:46:29;;;;;;;4.07;2.63;;;21.50;75.70;;;;;;10133000;28;20524;-74
2023/05/28 09:51:23;;;;;;;6.25;3.28;;;21.50;75.30;;;;;;10133013;28;20055;-65
2023/05/28 09:56:14;;;;;;;7.10;3.10;;;21.60;75.10;;;;;;10129362;28;20032;-65
2023/05/28 10:01:09;;;;;;;7.43;4.05;;;21.70;74.90;;;;;;10110775;28;20427;-73
2023/05/28 10:06:03;;;;;;;9.95;3.13;;;21.90;74.50;;;;;;10110699;28;20025;-63
2023/05/28 10:10:55;;;;;;;5.78;2.97;;;22.00;74.00;;;;;;10107506;28;20025;-61
2023/05/28 10:15:45;;;;;;;5.05;3.03;;;22.10;73.50;;;;;;10131690;28;20063;-60
2023/05/28 10:20:36;;;;;;;2.92;2.20;;;22.30;73.20;;;;;;10147697;28;20501;-63
2023/05/28 10:25:27;;;;;;;6.07;3.17;;;22.30;72.90;;;;;;10118344;28;20028;-61
2023/05/28 10:30:35;;;;;;;6.18;2.78;;;22.50;72.30;;;;;;10098654;28;20021;-61
2023/05/28 10:35:26;;;;;;;5.47;3.08;;;22.50;71.30;;;;;;10104600;28;20165;-61
2023/05/28 10:40:23;;;;;;;4.20;3.13;;;22.50;71.00;;;;;;10103776;28;20021;-61
2023/05/28 10:45:14;;;;;;;7.13;2.58;;;22.70;69.90;;;;;;10104026;28;20057;-62
2023/05/28 10:50:17;;;;;;;9.85;2.47;;;22.80;70.00;;;;;;10104637;28;20056;-63
2023/05/28 10:55:10;;;;;;;6.97;2.50;;;23.00;68.80;;;;;;10090397;28;20119;-66
2023/05/28 11:00:07;;;;;;;7.13;3.03;;;23.20;68.60;;;;;;10089854;28;20095;-68
2023/05/28 11:05:05;;;;;;;4.38;2.42;;;23.20;68.80;;;;;;10071877;28;20037;-68
2023/05/28 11:09:57;;;;;;;7.53;3.55;;;23.30;67.00;;;;;;10082460;28;20032;-62
2023/05/28 11:14:48;;;;;;;5.75;2.65;;;23.40;66.60;;;;;;10102336;28;20125;-67
2023/05/28 11:19:49;;;;;;;5.20;3.20;;;23.50;66.60;;;;;;10102887;28;20021;-63
2023/05/28 11:25:04;;;;;;;7.57;3.42;;;23.60;64.90;;;;;;10102200;28;20251;-59
2023/05/28 11:29:56;;;;;;;4.70;2.75;;;23.70;64.30;;;;;;10095453;28;20021;-62
2023/05/28 11:34:48;;;;;;;4.43;2.45;;;23.80;64.70;;;;;;10101997;28;20492;-61
2023/05/28 11:39:47;;;;;;;7.07;3.15;;;24.00;64.80;;;;;;10078407;28;20025;-63
2023/05/28 11:44:44;;;;;;;5.45;2.70;;;24.00;64.10;;;;;;10062935;28;20478;-69
2023/05/28 11:49:36;;;;;;;5.80;2.58;;;24.10;63.60;;;;;;10090457;28;20029;-63
2023/05/28 11:54:27;;;;;;;6.18;3.22;;;24.20;63.80;;;;;;10092521;28;20043;-71
2023/05/28 11:59:26;;;;;;;7.22;2.80;;;24.40;63.50;;;;;;10092519;28;20036;-62
2023/05/28 12:04:23;;;;;;;9.68;2.85;;;24.50;63.40;;;;;;10101020;28;20043;-64
2023/05/28 12:09:15;;;;;;;4.90;2.92;;;24.70;63.00;;;;;;10098386;28;20094;-62
2023/05/28 12:14:11;;;;;;;6.20;3.28;;;25.00;63.10;;;;;;10087786;28;20542;-67
2023/05/28 12:19:01;;;;;;;8.02;2.88;;;25.30;63.20;;;;;;10058318;28;20017;-63
2023/05/28 12:23:54;;;;;;;6.57;3.10;;;25.60;63.10;;;;;;10100277;28;20415;-61
2023/05/28 12:28:45;;;;;;;9.60;3.20;;;25.90;63.10;;;;;;10090210;28;20028;-60
2023/05/28 12:33:36;;;;;;;4.93;2.42;;;26.00;63.20;;;;;;10081536;28;20068;-61
2023/05/28 12:38:27;;;;;;;5.05;2.35;;;26.40;63.40;;;;;;10099678;28;20029;-61
2023/05/28 12:43:18;;;;;;;4.85;2.55;;;26.70;63.00;;;;;;10099669;28;20037;-67
2023/05/28 12:48:09;;;;;;;3.83;2.30;;;27.00;62.50;;;;;;10095492;28;20017;-61
2023/05/28 12:52:59;;;;;;;4.28;3.08;;;27.50;62.50;;;;;;10076824;28;20078;-60
2023/05/28 12:57:50;;;;;;;4.38;3.03;;;28.00;61.50;;;;;;10098941;28;20029;-66
2023/05/28 13:02:41;;;;;;;6.13;3.05;;;29.30;60.90;;;;;;10081090;28;20086;-61
2023/05/28 13:07:32;;;;;;;6.72;2.90;;;29.90;60.30;;;;;;10114675;28;20448;-62
2023/05/28 13:12:23;;;;;;;4.80;2.97;;;30.90;59.20;;;;;;10098668;28;20037;-62
2023/05/28 13:17:14;;;;;;;4.00;3.10;;;31.00;58.50;;;;;;10098664;28;20021;-61
2023/05/28 13:22:04;;;;;;;3.65;2.72;;;31.50;58.70;;;;;;10080632;28;20178;-61
2023/05/28 13:26:55;;;;;;;5.27;2.67;;;31.80;57.60;;;;;;10070290;28;20610;-63
2023/05/28 13:31:46;;;;;;;4.03;2.80;;;31.50;57.20;;;;;;10098338;28;20468;-63
2023/05/28 13:36:36;;;;;;;5.30;3.47;;;32.10;56.90;;;;;;10097950;28;20052;-62
2023/05/28 13:41:27;;;;;;;5.43;2.80;;;33.00;56.10;;;;;;10086921;28;20063;-67
2023/05/28 13:46:18;;;;;;;5.47;2.50;;;32.80;55.90;;;;;;10091356;28;20035;-71
2023/05/28 13:51:08;;;;;;;5.73;3.10;;;33.00;56.10;;;;;;10086927;28;20022;-63
2023/05/28 13:55:59;;;;;;;5.67;3.07;;;33.80;54.80;;;;;;10082418;28;20530;-62
2023/05/28 14:00:50;;;;;;;5.60;3.25;;;33.70;54.20;;;;;;10101010;28;20029;-64
2023/05/28 14:05:42;;;;;;;4.37;2.73;;;33.80;53.70;;;;;;10105998;28;20548;-62
2023/05/28 14:10:33;;;;;;;4.55;2.83;;;33.60;53.50;;;;;;10103981;28;20013;-63
2023/05/28 14:15:24;;;;;;;6.90;2.93;;;33.30;52.80;;;;;;10078256;28;20044;-69
2023/05/28 14:20:15;;;;;;;;;;;33.70;53.30;;;;;;10107608;28;20565;-64
2023/05/28 14:25:06;;;;;;;8.70;3.00;;;34.10;50.60;;;;;;10074446;28;19938;-68
2023/05/28 14:29:56;;;;;;;5.60;3.80;;;33.50;52.00;;;;;;10098768;28;20088;-61
2023/05/28 14:34:47;;;;;;;4.97;3.60;;;33.20;51.90;;;;;;10104623;28;20060;-62
2023/05/28 14:39:38;;;;;;;3.27;2.67;;;33.80;51.40;;;;;;10090110;28;20031;-66
2023/05/28 14:44:29;;;;;;;5.03;2.47;;;33.50;50.50;;;;;;10076669;28;20018;-71
2023/05/28 14:49:20;;;;;;;;;;;33.30;50.30;;;;;;10104207;28;20032;-61
2023/05/28 14:54:11;;;;;;;4.78;2.88;;;33.20;48.20;;;;;;10103548;28;20281;-60
2023/05/28 14:59:01;;;;;;;2.57;2.37;;;33.30;49.40;;;;;;10103489;28;20025;-61
2023/05/28 15:03:52;;;;;;;5.17;2.33;;;33.30;48.90;;;;;;10103205;28;20040;-61
2023/05/28 15:08:43;;;;;;;4.27;2.53;;;33.00;48.30;;;;;;10103517;28;20375;-61
2023/05/28 15:13:34;;;;;;;3.83;2.27;;;33.20;48.00;;;;;;10102571;28;20049;-62
2023/05/28 15:18:24;;;;;;;5.13;3.20;;;33.50;48.10;;;;;;10102619;28;20482;-65
2023/05/28 15:23:15;;;;;;;4.60;2.63;;;34.10;47.60;;;;;;10102233;28;20119;-63
2023/05/28 15:28:08;;;;;;;4.80;3.13;;;33.80;47.20;;;;;;10095589;28;20491;-61
2023/05/28 15:33:00;;;;;;;4.70;3.00;;;33.70;46.90;;;;;;10097682;28;20605;-63
2023/05/28 15:37:54;;;;;;;4.45;2.67;;;34.00;46.50;;;;;;10064138;28;20026;-60
2023/05/28 15:42:47;;;;;;;3.85;2.40;;;34.00;46.10;;;;;;10087271;28;20029;-66
2023/05/28 15:47:37;;;;;;;4.82;2.80;;;34.20;46.00;;;;;;10101873;28;20021;-61
2023/05/28 15:52:29;;;;;;;4.47;2.77;;;34.20;45.60;;;;;;10101409;28;20055;-61
2023/05/28 15:57:20;;;;;;;6.15;2.80;;;34.20;45.30;;;;;;10101019;28;20390;-62
2023/05/28 16:02:11;;;;;;;4.20;2.90;;;34.50;45.00;;;;;;10101381;28;20025;-63
2023/05/28 16:07:03;;;;;;;6.75;2.80;;;35.30;44.60;;;;;;10100450;28;20029;-61
2023/05/28 16:11:56;;;;;;;6.13;2.50;;;35.60;43.50;;;;;;10099954;28;20075;-61
2023/05/28 16:16:51;;;;;;;3.35;2.50;;;35.90;43.10;;;;;;10100305;28;20135;-64
2023/05/28 16:21:42;;;;;;;3.75;2.92;;;36.70;42.50;;;;;;10116193;28;20241;-70
2023/05/28 16:26:34;;;;;;;4.90;2.33;;;37.30;41.80;;;;;;10100415;28;20265;-72
2023/05/28 16:31:25;;;;;;;2.70;2.33;;;37.10;41.50;;;;;;10074351;28;20171;-67
2023/05/28 16:36:16;;;;;;;6.07;3.03;;;37.00;41.50;;;;;;10080666;28;20633;-66
2023/05/28 16:41:07;;;;;;;5.55;2.97;;;36.80;41.60;;;;;;10078647;28;20032;-61
2023/05/28 16:45:58;;;;;;;7.33;3.10;;;36.80;41.50;;;;;;10070675;28;20036;-61
2023/05/28 16:50:49;;;;;;;4.07;3.45;;;37.00;41.40;;;;;;10099563;28;20318;-64
2023/05/28 16:55:40;;;;;;;3.70;3.10;;;36.90;41.00;;;;;;10100237;28;20095;-63
2023/05/28 17:00:31;;;;;;;4.95;3.60;;;36.60;40.70;;;;;;10098608;28;20121;-68
2023/05/28 17:05:22;;;;;;;6.13;4.00;;;36.20;40.60;;;;;;10098726;28;20105;-72
2023/05/28 17:10:13;;;;;;;6.03;3.67;;;35.80;40.60;;;;;;10074616;28;20017;-63
2023/05/28 17:15:08;;;;;;;7.45;4.75;;;36.00;40.70;;;;;;10092796;28;20052;-63
2023/05/28 17:19:58;;;;;;;6.20;4.03;;;36.10;40.60;;;;;;10065060;28;20017;-62
2023/05/28 17:24:49;;;;;;;7.07;3.90;;;35.00;41.80;;;;;;10047839;28;20498;-66
2023/05/28 17:29:40;;;;;;;5.63;3.80;;;35.20;41.40;;;;;;10095590;28;20067;-63
2023/05/28 17:34:31;;;;;;;5.47;4.00;;;34.80;41.50;;;;;;10101458;28;20125;-66
2023/05/28 17:39:21;;;;;;;7.63;4.67;;;34.00;42.00;;;;;;10090858;28;20082;-63
2023/05/28 17:44:12;;;;;;;7.90;4.60;;;33.70;42.20;;;;;;10108558;28;20033;-63
2023/05/28 17:49:03;;;;;;;8.23;4.53;;;33.60;42.60;;;;;;10102050;28;20128;-73
2023/05/28 17:53:54;;;;;;;4.85;3.47;;;33.30;43.00;;;;;;10075116;28;20043;-69
2023/05/28 17:58:45;;;;;;;7.00;4.05;;;31.00;44.40;;;;;;10083934;28;20025;-66
2023/05/28 18:03:36;;;;;;;6.80;4.80;;;29.40;45.40;;;;;;10108193;28;20028;-62
2023/05/28 18:08:27;;;;;;;8.20;4.10;;;28.70;45.90;;;;;;10107752;28;20390;-61
2023/05/28 18:13:17;;;;;;;7.82;4.22;;;28.30;46.30;;;;;;10104220;28;20115;-63
2023/05/28 18:18:10;;;;;;;8.07;3.95;;;27.90;46.80;;;;;;10104059;28;20031;-61
2023/05/28 18:23:02;;;;;;;11.00;4.05;;;27.80;47.00;;;;;;10085721;28;20025;-61
2023/05/28 18:27:53;;;;;;;5.18;3.13;;;27.40;47.60;;;;;;10091709;28;20052;-62
2023/05/28 18:32:43;;;;;;;6.15;3.10;;;27.30;47.90;;;;;;10103042;28;20514;-62
2023/05/28 18:37:34;;;;;;;8.88;4.35;;;27.00;48.50;;;;;;10086179;28;20315;-69
2023/05/28 18:42:25;;;;;;;7.07;3.47;;;26.90;48.70;;;;;;10103740;28;20024;-62
2023/05/28 18:47:16;;;;;;;7.72;4.50;;;26.80;49.00;;;;;;10097441;28;20120;-62
2023/05/28 18:52:09;;;;;;;6.68;3.90;;;26.70;49.20;;;;;;10082021;28;20005;-71
2023/05/28 18:57:00;;;;;;;6.60;3.45;;;26.50;49.50;;;;;;10103518;28;20227;-69
2023/05/28 19:01:52;;;;;;;8.60;4.18;;;26.40;49.80;;;;;;10085110;28;20433;-60
2023/05/28 19:06:43;;;;;;;7.47;3.80;;;26.20;50.10;;;;;;10102400;28;20075;-61
2023/05/28 19:11:34;;;;;;;6.80;3.65;;;26.30;50.30;;;;;;10102667;28;20032;-64
2023/05/28 19:16:26;;;;;;;7.25;4.03;;;26.10;50.50;;;;;;10096786;28;20046;-60
2023/05/28 19:21:16;;;;;;;6.13;3.63;;;26.00;50.70;;;;;;10100187;28;20028;-69
2023/05/28 19:26:07;;;;;;;7.40;3.90;;;25.90;51.00;;;;;;10101884;28;20506;-65
2023/05/28 19:30:58;;;;;;;7.75;4.40;;;25.80;51.10;;;;;;10079966;28;20511;-72
2023/05/28 19:35:48;;;;;;;9.85;3.63;;;25.80;51.20;;;;;;10059305;28;20215;-63
2023/05/28 19:40:40;;;;;;;6.35;3.33;;;25.60;51.60;;;;;;10101785;28;20021;-70
2023/05/28 19:45:30;;;;;;;7.40;4.03;;;25.50;52.10;;;;;;10102454;28;20040;-61
2023/05/28 19:50:21;;;;;;;9.75;4.22;;;25.50;52.00;;;;;;10091608;28;20390;-63
2023/05/28 19:55:12;;;;;;;6.82;3.83;;;25.40;52.30;;;;;;10101429;28;20087;-65
2023/05/28 20:00:03;;;;;;;9.05;4.68;;;25.30;52.40;;;;;;10099561;28;20031;-61
2023/05/28 20:04:58;;;;;;;8.43;3.60;;;25.20;52.80;;;;;;10114321;28;20032;-62
2023/05/28 20:09:49;;;;;;;8.15;3.90;;;25.10;53.30;;;;;;10093017;28;20480;-69
2023/05/28 20:14:39;;;;;;;6.82;3.90;;;24.90;53.60;;;;;;10068836;28;20068;-70
2023/05/28 20:19:30;;;;;;;9.52;5.18;;;24.80;53.80;;;;;;10097174;28;20037;-69
2023/05/28 20:24:21;;;;;;;9.93;4.57;;;24.80;53.90;;;;;;10084174;28;20087;-68
2023/05/28 20:29:11;;;;;;;7.53;4.60;;;24.70;54.40;;;;;;10074990;28;20032;-60
2023/05/28 20:34:02;;;;;;;11.50;4.57;;;24.70;54.50;;;;;;10099334;28;20380;-73
2023/05/28 20:38:53;;;;;;;9.25;4.78;;;24.70;54.50;;;;;;10100039;28;20108;-65
2023/05/28 20:43:44;;;;;;;6.65;3.50;;;24.40;55.20;;;;;;10065432;28;20124;-70
2023/05/28 20:48:35;;;;;;;8.10;4.03;;;24.20;55.70;;;;;;10095114;28;20025;-69
2023/05/28 20:53:26;;;;;;;7.07;4.50;;;24.00;56.10;;;;;;10080737;28;20344;-65
2023/05/28 20:58:16;;;;;;;7.28;4.20;;;24.00;56.20;;;;;;10098683;28;20028;-66
2023/05/28 21:03:07;;;;;;;8.95;3.47;;;24.00;56.50;;;;;;10098925;28;20025;-62
2023/05/28 21:07:58;;;;;;;6.93;3.85;;;23.90;56.60;;;;;;10098345;28;20518;-64
2023/05/28 21:12:48;;;;;;;11.18;3.78;;;23.90;56.80;;;;;;10079299;28;20045;-64
2023/05/28 21:17:39;;;;;;;7.78;3.90;;;23.80;57.90;;;;;;10098547;28;20025;-64
2023/05/28 21:22:30;;;;;;;7.18;3.22;;;23.70;57.40;;;;;;10071771;28;20033;-66
2023/05/28 21:27:21;;;;;;;8.25;3.75;;;23.60;57.60;;;;;;10065124;28;20100;-66
2023/05/28 21:32:12;;;;;;;6.18;3.65;;;23.50;57.90;;;;;;10076420;28;20025;-62
2023/05/28 21:37:02;;;;;;;6.53;3.70;;;23.40;58.10;;;;;;10097487;28;20041;-67
2023/05/28 21:41:53;;;;;;;4.68;3.25;;;23.40;58.20;;;;;;10084575;28;20150;-61
2023/05/28 21:46:44;;;;;;;7.63;4.10;;;23.40;58.50;;;;;;10098665;28;20039;-64
2023/05/28 21:51:35;;;;;;;6.10;3.60;;;23.30;58.60;;;;;;10098934;28;20025;-62
2023/05/28 21:56:27;;;;;;;7.95;4.45;;;23.20;58.70;;;;;;10097267;28;20102;-60
2023/05/28 22:01:17;;;;;;;5.20;3.38;;;23.20;58.80;;;;;;10098038;28;20047;-62
2023/05/28 22:06:09;;;;;;;7.13;3.42;;;23.10;59.00;;;;;;10078704;28;20037;-60
2023/05/28 22:11:02;;;;;;;8.50;3.90;;;23.00;59.20;;;;;;10081175;28;20021;-62
2023/05/28 22:15:52;;;;;;;6.43;3.63;;;22.90;59.30;;;;;;10074088;28;20478;-64
2023/05/28 22:20:48;;;;;;;9.35;4.40;;;22.80;59.60;;;;;;10097235;28;20024;-61
2023/05/28 22:25:40;;;;;;;6.90;3.63;;;22.60;60.00;;;;;;10105203;28;20049;-64
2023/05/28 22:30:31;;;;;;;5.30;3.10;;;22.60;60.00;;;;;;10098352;28;20451;-66
2023/05/28 22:35:22;;;;;;;8.32;3.78;;;22.40;60.50;;;;;;10103856;28;20029;-64
2023/05/28 22:40:13;;;;;;;7.03;3.75;;;22.10;60.80;;;;;;10104520;28;20033;-71
2023/05/28 22:45:04;;;;;;;6.93;4.10;;;22.10;61.00;;;;;;10105133;28;20370;-70
2023/05/28 22:49:55;;;;;;;7.30;3.10;;;22.00;61.20;;;;;;10104396;28;20176;-75
2023/05/28 22:54:47;;;;;;;6.82;3.80;;;22.00;61.60;;;;;;10103158;28;20422;-67
2023/05/28 22:59:38;;;;;;;6.97;4.55;;;21.90;61.70;;;;;;10117987;28;20033;-62
2023/05/28 23:04:28;;;;;;;7.00;4.10;;;21.80;61.90;;;;;;10104890;28;20036;-76
2023/05/28 23:09:19;;;;;;;8.57;3.55;;;21.80;62.10;;;;;;10075191;28;20086;-64
2023/05/28 23:14:12;;;;;;;6.40;3.15;;;21.70;62.60;;;;;;10104067;28;20057;-62
2023/05/28 23:19:04;;;;;;;7.05;3.67;;;21.50;62.70;;;;;;10096099;28;20021;-67
2023/05/28 23:23:55;;;;;;;7.15;3.45;;;21.30;63.30;;;;;;10101933;28;20056;-62
2023/05/28 23:28:46;;;;;;;5.00;3.20;;;21.40;63.30;;;;;;10095442;28;20502;-65
2023/05/28 23:33:37;;;;;;;8.05;3.80;;;21.20;63.80;;;;;;10089260;28;20047;-69
2023/05/28 23:38:27;;;;;;;4.90;3.20;;;21.20;63.80;;;;;;10103190;28;20074;-71
2023/05/28 23:43:18;;;;;;;8.38;3.97;;;21.10;64.10;;;;;;10102365;28;20033;-62
2023/05/28 23:48:08;;;;;;;6.22;3.38;;;21.00;64.40;;;;;;10102223;28;20460;-61
2023/05/28 23:52:59;;;;;;;5.60;3.53;;;21.00;64.60;;;;;;10102033;28;20033;-64
2023/05/28 23:57:50;;;;;;;6.43;3.63;;;20.90;64.70;;;;;;10098781;28;20028;-65
